»·PEaware :: N29274 KFTG-KCOS

N29274 :: KFTG-KCOS

FLIGHT INFORMATION

Flight Status: Arrived
Operator: Privately registered:
United States
More flights under this callsign
Pilot: Independence Aviation (10230)
Aircraft: CIRRUS SR-20
(SR20)
More flights by this aircraft type
Origin: KFTG Front Range
United States
Destination: KCOS City Of Colorado Springs Mun
United States
More flights between these airports :: More routes between these airports
Route: +V389 ADANE BRK
File this flight plan on PilotEdge
Remarks:
Altitude:
(Current/Filed)
7,000ft
Speed:
(Current/Filed)
110kts
Departed: 17-Oct-17 04:58 PM
Arrived: 17-Oct-17 05:44 PM
Distance/Time
Traveled:
59nm/0:46
Distance/Time
To Go:
Arrived

Flight Plot

Page will automatically refresh every two minutes.


Map Options




Map Legend


Flown Route
Filed Route
Departure Airport
Arrival Airport
Navaid (VOR, NDB)
Fix

Horizontal Profiles

Position Reports

Time Latitude Longitude Heading Altitude Ground
Speed
17-Oct-17 16:50 39.785495 -104.523067 264 5470ft 0kts
17-Oct-17 16:51 39.785495 -104.523067 264 5470ft 0kts
17-Oct-17 16:52 39.785495 -104.523067 264 5470ft 0kts
17-Oct-17 16:53 39.785495 -104.523067 264 5470ft 0kts
17-Oct-17 16:54 39.785495 -104.523067 264 5470ft 0kts
17-Oct-17 16:55 39.785495 -104.523067 264 5470ft 0kts
17-Oct-17 16:56 39.785495 -104.523067 264 5470ft 0kts
17-Oct-17 16:57 39.785495 -104.523067 264 5470ft 0kts
17-Oct-17 16:58 39.785495 -104.523067 264 5470ft 0kts
17-Oct-17 16:59 39.785495 -104.523067 264 5470ft 0kts
17-Oct-17 17:00 39.785495 -104.523067 264 5470ft 0kts
17-Oct-17 17:01 39.785495 -104.523067 264 5470ft 0kts
17-Oct-17 17:02 39.784867 -104.524242 178 5469ft 23kts
17-Oct-17 17:03 39.764689 -104.524592 181 5995ft 88kts
17-Oct-17 17:04 39.740723 -104.523865 177 6925ft 92kts
17-Oct-17 17:05 39.712859 -104.522532 176 7741ft 108kts
17-Oct-17 17:06 39.685301 -104.520628 180 8759ft 94kts
17-Oct-17 17:07 39.659420 -104.518763 177 9496ft 103kts
17-Oct-17 17:08 39.630598 -104.515561 173 10250ft 107kts
17-Oct-17 17:09 39.599196 -104.509974 167 10759ft 127kts
17-Oct-17 17:10 39.562451 -104.497660 163 11051ft 140kts
17-Oct-17 17:11 39.528968 -104.483785 154 10964ft 118kts
17-Oct-17 17:12 39.497596 -104.463592 151 11049ft 131kts
17-Oct-17 17:13 39.466355 -104.449749 176 11365ft 124kts
17-Oct-17 17:14 39.431368 -104.449914 180 11109ft 126kts
17-Oct-17 17:15 39.396274 -104.448399 177 11065ft 129kts
17-Oct-17 17:16 39.361499 -104.444400 182 11029ft 129kts
17-Oct-17 17:17 39.326187 -104.440055 159 10971ft 131kts
17-Oct-17 17:18 39.293104 -104.421754 156 10966ft 129kts
17-Oct-17 17:19 39.259469 -104.403938 156 10927ft 129kts
17-Oct-17 17:20 39.226863 -104.388808 165 10974ft 124kts
17-Oct-17 17:21 39.194214 -104.373990 152 10987ft 122kts
17-Oct-17 17:22 39.165446 -104.349128 142 10949ft 125kts
17-Oct-17 17:23 39.139630 -104.332579 236 10744ft 119kts
17-Oct-17 17:24 39.119119 -104.368819 231 11305ft 125kts
17-Oct-17 17:25 39.095188 -104.402196 229 10889ft 115kts
17-Oct-17 17:26 39.075447 -104.432036 224 10737ft 109kts
17-Oct-17 17:27 39.049384 -104.464751 224 9965ft 143kts
17-Oct-17 17:28 39.023013 -104.500866 221 9372ft 135kts
17-Oct-17 17:29 38.997324 -104.533125 224 8935ft 118kts
17-Oct-17 17:30 38.972124 -104.563132 222 8901ft 137kts
17-Oct-17 17:31 38.954409 -104.604361 255 9121ft 137kts
17-Oct-17 17:32 38.946260 -104.650459 255 9007ft 124kts
17-Oct-17 17:33 38.938148 -104.690340 256 8947ft 109kts
17-Oct-17 17:34 38.928538 -104.727367 243 8478ft 107kts
17-Oct-17 17:35 38.922305 -104.760407 272 8381ft 96kts
17-Oct-17 17:36 38.935303 -104.781791 334 8432ft 89kts
17-Oct-17 17:37 38.959603 -104.785553 4 8479ft 102kts
17-Oct-17 17:38 38.993103 -104.782101 1 8658ft 122kts
17-Oct-17 17:39 39.027097 -104.776458 24 8567ft 117kts
17-Oct-17 17:40 39.039789 -104.741009 87 8485ft 116kts
17-Oct-17 17:41 39.030385 -104.701554 141 8657ft 134kts
17-Oct-17 17:42 38.998855 -104.684735 177 8602ft 114kts
17-Oct-17 17:43 38.968777 -104.685265 180 8552ft 106kts
17-Oct-17 17:44 38.936906 -104.684885 179 8601ft 116kts
17-Oct-17 17:45 38.902466 -104.686068 180 7987ft 124kts
17-Oct-17 17:46 38.875102 -104.686088 181 7372ft 80kts
17-Oct-17 17:47 38.853593 -104.685795 180 6979ft 76kts
17-Oct-17 17:48 38.827032 -104.685759 178 6462ft 113kts
17-Oct-17 17:49 38.807227 -104.685749 176 6177ft 8kts
17-Oct-17 17:50 38.802079 -104.686833 281 6153ft 6kts

Navigation Log

Ident Type
Flight plan parsing failed, navigation log unavailable